Time;durP1;ratioP1;P1;durP2;ratioP2;P2;SDS_P1;SDS_P2;PMS_P1;PMS_P2;Temp;Humidity;BMP_temperature;BMP_pressure;BME280_temperature;BME280_humidity;BME280_pressure;Samples;Min_cycle;Max_cycle;Signal;HPM_P1;HPM_P2
2024/03/31 00:01:02;;;;;;;5.18;4.47;;;;;;;;;;6291441;28;20064;-71
2024/03/31 00:04:03;;;;;;;8.95;5.32;;;;;;;;;;6286261;28;20040;-73
2024/03/31 00:07:05;;;;;;;8.00;7.38;;;;;;;;;;6293878;28;20065;-73
2024/03/31 00:10:06;;;;;;;6.80;4.32;;;;;;;;;;6277070;28;20720;-71
2024/03/31 00:13:08;;;;;;;4.82;3.63;;;;;;;;;;6273281;28;20048;-71
2024/03/31 00:16:09;;;;;;;7.50;4.63;;;;;;;;;;6272532;28;20038;-72
2024/03/31 00:19:11;;;;;;;6.22;2.03;;;;;;;;;;6278489;28;20602;-72
2024/03/31 00:22:12;;;;;;;9.07;3.65;;;;;;;;;;6265765;28;20044;-72
2024/03/31 00:25:13;;;;;;;6.65;5.90;;;;;;;;;;6285958;28;20526;-72
2024/03/31 00:28:15;;;;;;;5.68;3.90;;;;;;;;;;6276445;28;20043;-71
2024/03/31 00:31:16;;;;;;;5.25;4.20;;;;;;;;;;6237849;28;20044;-72
2024/03/31 00:34:17;;;;;;;5.13;4.30;;;;;;;;;;6271297;28;20101;-72
2024/03/31 00:37:18;;;;;;;6.72;5.53;;;;;;;;;;6272984;28;20036;-72
2024/03/31 00:40:20;;;;;;;6.32;5.53;;;;;;;;;;6298350;28;20052;-72
2024/03/31 00:43:22;;;;;;;7.32;6.57;;;;;;;;;;6291134;28;20047;-72
2024/03/31 00:46:23;;;;;;;6.43;4.20;;;;;;;;;;6285920;28;20044;-72
2024/03/31 00:49:24;;;;;;;4.22;3.83;;;;;;;;;;6276174;28;20128;-73
2024/03/31 00:52:25;;;;;;;8.02;7.22;;;;;;;;;;6269338;28;20040;-73
2024/03/31 00:55:26;;;;;;;5.38;4.70;;;;;;;;;;6272292;28;20047;-72
2024/03/31 00:58:28;;;;;;;5.47;4.95;;;;;;;;;;6308911;28;20040;-73
2024/03/31 01:01:30;;;;;;;4.80;4.18;;;;;;;;;;6275110;28;20054;-72
2024/03/31 01:04:31;;;;;;;8.70;4.50;;;;;;;;;;6288426;28;20041;-73
2024/03/31 01:07:32;;;;;;;5.40;2.55;;;;;;;;;;6290576;28;20447;-72
2024/03/31 01:10:34;;;;;;;9.15;4.93;;;;;;;;;;6257145;28;20071;-73
2024/03/31 01:13:35;;;;;;;7.00;4.60;;;;;;;;;;6288279;28;20055;-73
2024/03/31 01:16:41;;;;;;;7.20;6.07;;;;;;;;;;6292077;28;20053;-72
2024/03/31 01:19:42;;;;;;;6.95;4.68;;;;;;;;;;6285861;28;20155;-72
2024/03/31 01:22:43;;;;;;;6.43;5.03;;;;;;;;;;6276778;28;20048;-72
2024/03/31 01:25:44;;;;;;;4.90;4.32;;;;;;;;;;6275768;28;20800;-73
2024/03/31 01:28:46;;;;;;;8.32;5.10;;;;;;;;;;6293051;28;20032;-72
2024/03/31 01:31:47;;;;;;;5.70;4.32;;;;;;;;;;6294071;28;20096;-73
2024/03/31 01:34:48;;;;;;;6.53;2.30;;;;;;;;;;6259472;28;20422;-73
2024/03/31 01:37:50;;;;;;;5.50;4.80;;;;;;;;;;6276884;28;20124;-73
2024/03/31 01:40:53;;;;;;;10.02;4.72;;;;;;;;;;6286254;28;20044;-72
2024/03/31 01:43:55;;;;;;;7.70;4.90;;;;;;;;;;6255014;28;20584;-73
2024/03/31 01:46:56;;;;;;;9.27;5.65;;;;;;;;;;6276703;28;20051;-72
2024/03/31 01:49:57;;;;;;;5.32;4.82;;;;;;;;;;6292949;28;20285;-73
2024/03/31 01:52:58;;;;;;;6.38;4.15;;;;;;;;;;6242188;28;20061;-72
2024/03/31 01:56:00;;;;;;;6.22;4.53;;;;;;;;;;6291666;28;20068;-73
2024/03/31 01:59:01;;;;;;;10.07;5.05;;;;;;;;;;6275767;28;20040;-72
2024/03/31 02:02:04;;;;;;;5.43;4.28;;;;;;;;;;6292414;28;20097;-72
2024/03/31 02:05:05;;;;;;;8.05;4.35;;;;;;;;;;6278665;28;20040;-72
2024/03/31 02:08:07;;;;;;;7.25;4.47;;;;;;;;;;6291398;28;20036;-73
2024/03/31 02:11:08;;;;;;;8.98;5.07;;;;;;;;;;6276771;28;20039;-72
2024/03/31 02:14:09;;;;;;;5.18;4.50;;;;;;;;;;6242302;28;20040;-72
2024/03/31 02:17:10;;;;;;;10.30;5.18;;;;;;;;;;6308499;28;20531;-72
2024/03/31 02:20:11;;;;;;;5.05;4.55;;;;;;;;;;6296275;28;20052;-72
2024/03/31 02:23:12;;;;;;;5.90;5.40;;;;;;;;;;6274886;28;20147;-72
2024/03/31 02:26:13;;;;;;;7.70;4.82;;;;;;;;;;6281962;28;20043;-72
2024/03/31 02:29:16;;;;;;;7.50;5.03;;;;;;;;;;6255883;28;20036;-73
2024/03/31 02:32:20;;;;;;;6.07;5.45;;;;;;;;;;6278064;28;20604;-71
2024/03/31 02:35:22;;;;;;;3.90;2.15;;;;;;;;;;6313523;28;20453;-71
2024/03/31 02:38:23;;;;;;;6.13;5.47;;;;;;;;;;6271672;28;20111;-72
2024/03/31 02:41:24;;;;;;;10.60;5.63;;;;;;;;;;6269151;28;20048;-73
2024/03/31 02:44:25;;;;;;;7.22;5.88;;;;;;;;;;6274498;28;20047;-72
2024/03/31 02:47:29;;;;;;;9.75;5.10;;;;;;;;;;6302701;28;20608;-72
2024/03/31 02:50:31;;;;;;;6.25;2.72;;;;;;;;;;6273100;28;20501;-72
2024/03/31 02:53:33;;;;;;;6.43;4.80;;;;;;;;;;6256765;28;20117;-73
2024/03/31 02:56:34;;;;;;;6.22;5.45;;;;;;;;;;6290541;28;20683;-73
2024/03/31 02:59:36;;;;;;;9.35;4.85;;;;;;;;;;6273016;28;20055;-73
2024/03/31 03:02:40;;;;;;;5.97;5.38;;;;;;;;;;6267929;28;20044;-73
2024/03/31 03:05:41;;;;;;;6.65;3.10;;;;;;;;;;6277441;28;20474;-73
2024/03/31 03:08:42;;;;;;;9.73;5.22;;;;;;;;;;6275941;28;20156;-73
2024/03/31 03:11:49;;;;;;;11.40;5.95;;;;;;;;;;6271663;28;20599;-73
2024/03/31 03:14:54;;;;;;;7.50;4.18;;;;;;;;;;6280929;28;20044;-73
2024/03/31 03:17:56;;;;;;;9.18;5.32;;;;;;;;;;6296245;28;20044;-73
2024/03/31 03:20:58;;;;;;;8.18;5.30;;;;;;;;;;6292340;28;20058;-73
2024/03/31 03:24:00;;;;;;;8.13;5.10;;;;;;;;;;6289567;28;20040;-73
2024/03/31 03:27:01;;;;;;;8.75;6.70;;;;;;;;;;6272792;28;20033;-73
2024/03/31 03:30:03;;;;;;;7.85;7.13;;;;;;;;;;6275560;28;20044;-73
2024/03/31 03:33:05;;;;;;;7.97;7.25;;;;;;;;;;6303758;28;20047;-73
2024/03/31 03:36:06;;;;;;;8.30;4.95;;;;;;;;;;6272941;28;20044;-73
2024/03/31 03:39:07;;;;;;;8.55;5.40;;;;;;;;;;6304923;28;20048;-73
2024/03/31 03:42:09;;;;;;;12.30;6.50;;;;;;;;;;6266113;28;20047;-73
2024/03/31 03:45:10;;;;;;;6.53;2.88;;;;;;;;;;6278735;28;20664;-73
2024/03/31 03:48:12;;;;;;;5.28;2.35;;;;;;;;;;6276960;28;20871;-71
2024/03/31 03:51:13;;;;;;;6.97;6.28;;;;;;;;;;6258712;28;20048;-73
2024/03/31 03:54:14;;;;;;;5.97;4.50;;;;;;;;;;6272742;28;20936;-73
2024/03/31 03:57:15;;;;;;;8.60;5.85;;;;;;;;;;6256346;28;20040;-73
2024/03/31 04:00:17;;;;;;;5.43;4.63;;;;;;;;;;6292235;28;20047;-73
2024/03/31 04:03:20;;;;;;;6.93;4.55;;;;;;;;;;6272998;28;20054;-73
2024/03/31 04:06:21;;;;;;;7.95;4.93;;;;;;;;;;6251906;28;20044;-73
2024/03/31 04:09:23;;;;;;;8.38;5.82;;;;;;;;;;6265327;28;20040;-72
2024/03/31 04:12:24;;;;;;;12.68;4.65;;;;;;;;;;6272022;28;20044;-73
2024/03/31 04:15:25;;;;;;;11.85;5.43;;;;;;;;;;6288704;28;20036;-72
2024/03/31 04:18:26;;;;;;;7.80;5.85;;;;;;;;;;6286351;28;20059;-72
2024/03/31 04:21:28;;;;;;;7.22;2.03;;;;;;;;;;6249647;28;20697;-72
2024/03/31 04:24:29;;;;;;;9.10;4.93;;;;;;;;;;6269059;28;20036;-71
2024/03/31 04:27:31;;;;;;;7.78;5.30;;;;;;;;;;6271018;28;20051;-72
2024/03/31 04:30:41;;;;;;;7.45;5.43;;;;;;;;;;6255405;28;20040;-72
2024/03/31 04:33:43;;;;;;;6.18;4.53;;;;;;;;;;6287264;28;20048;-72
2024/03/31 04:36:44;;;;;;;6.70;5.28;;;;;;;;;;6289012;28;20032;-72
2024/03/31 04:39:46;;;;;;;7.10;2.70;;;;;;;;;;6317961;28;20592;-73
2024/03/31 04:42:51;;;;;;;7.40;5.55;;;;;;;;;;6263176;28;20040;-72
2024/03/31 04:46:04;;;;;;;9.55;6.68;;;;;;;;;;6235115;28;20050;-73
2024/03/31 04:49:06;;;;;;;6.47;5.10;;;;;;;;;;6288290;28;20040;-72
2024/03/31 04:52:07;;;;;;;6.70;5.10;;;;;;;;;;6268421;28;20076;-73
2024/03/31 04:55:09;;;;;;;7.80;6.45;;;;;;;;;;6258329;28;20068;-72
2024/03/31 04:58:11;;;;;;;7.72;5.93;;;;;;;;;;6292897;28;20044;-72
2024/03/31 05:01:13;;;;;;;7.70;3.53;;;;;;;;;;6287347;28;20576;-73
2024/03/31 05:04:14;;;;;;;9.88;6.65;;;;;;;;;;6274914;28;20065;-72
2024/03/31 05:07:17;;;;;;;11.70;8.57;;;;;;;;;;6263345;28;20166;-72
2024/03/31 05:10:19;;;;;;;13.23;7.70;;;;;;;;;;6278107;28;20051;-73
2024/03/31 05:13:21;;;;;;;10.50;8.38;;;;;;;;;;6260420;28;20094;-73
2024/03/31 05:16:22;;;;;;;9.02;3.95;;;;;;;;;;6274683;28;20434;-72
2024/03/31 05:19:24;;;;;;;7.43;5.80;;;;;;;;;;6275162;28;20048;-72
2024/03/31 05:22:25;;;;;;;6.43;5.50;;;;;;;;;;6275181;28;20127;-72
2024/03/31 05:25:27;;;;;;;7.00;5.57;;;;;;;;;;6263262;28;20055;-72
2024/03/31 05:28:29;;;;;;;7.63;5.45;;;;;;;;;;6290585;28;20044;-72
2024/03/31 05:31:29;;;;;;;6.63;2.92;;;;;;;;;;6258655;28;20411;-72
2024/03/31 05:34:51;;;;;;;12.68;6.88;;;;;;;;;;6291867;28;20064;-72
2024/03/31 05:37:52;;;;;;;6.93;3.40;;;;;;;;;;6305803;28;20809;-73
2024/03/31 05:40:54;;;;;;;8.75;6.15;;;;;;;;;;6271989;28;20052;-72
2024/03/31 05:43:55;;;;;;;20.38;9.23;;;;;;;;;;6283574;28;20043;-72
2024/03/31 05:46:57;;;;;;;20.08;8.35;;;;;;;;;;6292399;28;20594;-73
2024/03/31 05:49:59;;;;;;;22.75;11.75;;;;;;;;;;6273309;28;20076;-73
2024/03/31 05:53:00;;;;;;;7.03;3.03;;;;;;;;;;6262195;28;20747;-73
2024/03/31 05:56:02;;;;;;;8.02;5.80;;;;;;;;;;6287925;28;20036;-73
2024/03/31 05:59:06;;;;;;;11.15;4.93;;;;;;;;;;6253399;28;20517;-73
2024/03/31 06:02:09;;;;;;;10.52;5.15;;;;;;;;;;6258256;28;20040;-73
2024/03/31 06:05:10;;;;;;;9.15;4.93;;;;;;;;;;6253894;28;20075;-73
2024/03/31 06:08:11;;;;;;;6.00;5.28;;;;;;;;;;6250331;28;20040;-73
2024/03/31 06:11:14;;;;;;;8.95;3.70;;;;;;;;;;6277266;28;20465;-73
2024/03/31 06:14:16;;;;;;;10.20;5.22;;;;;;;;;;6289421;28;20044;-73
2024/03/31 06:17:19;;;;;;;8.95;5.28;;;;;;;;;;6272041;28;20064;-74
2024/03/31 06:20:20;;;;;;;8.30;5.85;;;;;;;;;;6256284;28;20048;-73
2024/03/31 06:23:21;;;;;;;4.88;2.60;;;;;;;;;;6257899;28;20629;-73
2024/03/31 06:26:23;;;;;;;9.02;5.63;;;;;;;;;;6297823;28;20040;-73
2024/03/31 06:29:24;;;;;;;6.88;4.18;;;;;;;;;;6274118;28;20059;-73
2024/03/31 06:32:25;;;;;;;9.38;2.60;;;;;;;;;;6277482;28;20719;-73
2024/03/31 06:35:27;;;;;;;7.00;4.85;;;;;;;;;;6268998;28;20032;-73
2024/03/31 06:38:28;;;;;;;7.90;5.32;;;;;;;;;;6239685;28;20062;-73
2024/03/31 06:41:29;;;;;;;8.10;2.63;;;;;;;;;;6308318;28;20476;-73
2024/03/31 06:44:31;;;;;;;9.50;5.28;;;;;;;;;;6272090;28;20519;-73
2024/03/31 06:47:33;;;;;;;13.18;4.45;;;;;;;;;;6256152;28;20063;-74
2024/03/31 06:50:35;;;;;;;9.27;5.28;;;;;;;;;;6270292;28;20044;-73
2024/03/31 06:53:38;;;;;;;9.50;4.72;;;;;;;;;;6271979;28;20040;-74
2024/03/31 06:56:43;;;;;;;8.00;2.55;;;;;;;;;;6255151;28;20394;-75
2024/03/31 06:59:44;;;;;;;8.30;5.70;;;;;;;;;;6287825;28;20055;-74
2024/03/31 07:02:49;;;;;;;9.23;4.63;;;;;;;;;;6240191;28;20101;-73
2024/03/31 07:05:51;;;;;;;7.75;3.33;;;;;;;;;;6288949;28;20551;-73
2024/03/31 07:08:52;;;;;;;7.38;4.22;;;;;;;;;;6273129;28;20044;-72
2024/03/31 07:11:55;;;;;;;10.02;4.80;;;;;;;;;;6264834;28;20044;-72
2024/03/31 07:14:56;;;;;;;10.25;6.65;;;;;;;;;;6268214;28;20120;-73
2024/03/31 07:18:08;;;;;;;7.60;4.95;;;;;;;;;;6271907;28;20051;-72
2024/03/31 07:21:10;;;;;;;11.13;4.30;;;;;;;;;;6277288;28;20043;-72
2024/03/31 07:24:12;;;;;;;5.75;4.07;;;;;;;;;;6273047;28;20132;-72
2024/03/31 07:27:14;;;;;;;10.35;4.75;;;;;;;;;;6259767;28;20046;-72
2024/03/31 07:30:15;;;;;;;9.40;4.22;;;;;;;;;;6273486;28;20044;-72
2024/03/31 07:33:16;;;;;;;15.95;6.15;;;;;;;;;;6306368;28;20044;-72
2024/03/31 07:36:18;;;;;;;6.43;4.00;;;;;;;;;;6287479;28;20542;-73
2024/03/31 07:39:19;;;;;;;7.57;3.70;;;;;;;;;;6288100;28;20035;-72
2024/03/31 07:42:20;;;;;;;9.93;5.13;;;;;;;;;;6270892;28;20059;-72
2024/03/31 07:45:23;;;;;;;7.82;3.55;;;;;;;;;;6273180;28;20036;-73
2024/03/31 07:48:24;;;;;;;10.18;4.82;;;;;;;;;;6294390;28;20055;-73
2024/03/31 07:51:27;;;;;;;6.13;1.85;;;;;;;;;;6269593;28;20506;-72
2024/03/31 07:54:28;;;;;;;7.28;2.22;;;;;;;;;;6289631;28;20728;-72
2024/03/31 07:57:29;;;;;;;6.60;2.17;;;;;;;;;;6284462;28;20658;-72
2024/03/31 08:00:30;;;;;;;7.85;4.15;;;;;;;;;;6247258;28;20546;-72
2024/03/31 08:03:31;;;;;;;13.95;7.93;;;;;;;;;;6287199;28;20050;-72
2024/03/31 08:06:32;;;;;;;8.30;3.47;;;;;;;;;;6286279;28;20115;-72
2024/03/31 08:09:33;;;;;;;12.00;8.32;;;;;;;;;;6262060;28;20051;-72
2024/03/31 08:12:34;;;;;;;8.93;4.40;;;;;;;;;;6268534;28;20044;-72
2024/03/31 08:15:35;;;;;;;7.05;2.15;;;;;;;;;;6288502;28;20426;-73
2024/03/31 08:18:40;;;;;;;8.50;3.55;;;;;;;;;;6267253;28;20048;-73
2024/03/31 08:21:41;;;;;;;8.10;3.58;;;;;;;;;;6286059;28;20827;-72
2024/03/31 08:24:47;;;;;;;8.23;4.47;;;;;;;;;;6286073;28;20073;-72
2024/03/31 08:27:49;;;;;;;7.10;4.38;;;;;;;;;;6299826;28;20118;-73
2024/03/31 08:30:50;;;;;;;8.15;3.75;;;;;;;;;;6293445;28;20047;-73
2024/03/31 08:33:52;;;;;;;9.85;3.80;;;;;;;;;;6284527;28;20051;-73
2024/03/31 08:36:53;;;;;;;9.35;2.22;;;;;;;;;;6277481;28;20825;-72
2024/03/31 08:39:54;;;;;;;8.50;4.05;;;;;;;;;;6285303;28;20230;-73
2024/03/31 08:43:05;;;;;;;8.00;2.33;;;;;;;;;;6286673;28;20709;-73
2024/03/31 08:46:07;;;;;;;6.30;3.35;;;;;;;;;;6268046;28;20037;-73
2024/03/31 08:49:10;;;;;;;9.02;3.85;;;;;;;;;;6270553;28;20041;-73
2024/03/31 08:52:11;;;;;;;8.43;4.65;;;;;;;;;;6237734;28;20154;-73
2024/03/31 08:55:12;;;;;;;7.60;3.60;;;;;;;;;;6272704;28;20033;-73
2024/03/31 08:58:13;;;;;;;12.60;4.30;;;;;;;;;;6270420;28;20113;-71
2024/03/31 09:01:16;;;;;;;8.45;4.20;;;;;;;;;;6287458;28;20039;-71
2024/03/31 09:04:17;;;;;;;9.57;4.00;;;;;;;;;;6270101;28;20070;-72
2024/03/31 09:07:20;;;;;;;7.43;3.67;;;;;;;;;;6280904;28;20048;-72
2024/03/31 09:10:22;;;;;;;6.00;3.63;;;;;;;;;;6286677;28;20519;-72
2024/03/31 09:13:23;;;;;;;7.70;4.85;;;;;;;;;;6294635;28;20071;-72
2024/03/31 09:16:25;;;;;;;8.77;4.63;;;;;;;;;;6288328;28;20060;-72
2024/03/31 09:19:26;;;;;;;7.60;4.18;;;;;;;;;;6286357;28;20067;-72
2024/03/31 09:22:27;;;;;;;8.77;3.53;;;;;;;;;;6290795;28;20163;-73
2024/03/31 09:25:28;;;;;;;8.90;4.25;;;;;;;;;;6274868;28;20032;-73
2024/03/31 09:28:29;;;;;;;8.15;1.38;;;;;;;;;;6296657;28;20043;-72
2024/03/31 09:31:31;;;;;;;7.10;4.15;;;;;;;;;;6301008;28;20803;-72
2024/03/31 09:34:32;;;;;;;8.20;4.03;;;;;;;;;;6286694;28;20044;-72
2024/03/31 09:37:39;;;;;;;8.30;3.67;;;;;;;;;;6272366;28;20044;-72
2024/03/31 09:40:42;;;;;;;9.57;4.07;;;;;;;;;;6268497;28;20155;-72
2024/03/31 09:43:44;;;;;;;9.85;5.95;;;;;;;;;;6274308;28;20779;-72
2024/03/31 09:46:46;;;;;;;7.63;3.80;;;;;;;;;;6290563;28;20698;-73
2024/03/31 09:50:08;;;;;;;7.63;3.33;;;;;;;;;;6277393;28;20051;-73
2024/03/31 09:53:15;;;;;;;8.25;1.13;;;;;;;;;;6287960;28;20044;-73
2024/03/31 09:56:18;;;;;;;7.20;3.55;;;;;;;;;;6274169;28;20062;-73
2024/03/31 09:59:23;;;;;;;9.52;1.98;;;;;;;;;;6300492;28;20044;-73
2024/03/31 10:02:26;;;;;;;5.22;2.60;;;;;;;;;;6281652;28;20566;-73
2024/03/31 10:05:33;;;;;;;4.95;1.42;;;;;;;;;;6287743;28;20055;-74
2024/03/31 10:08:34;;;;;;;8.20;3.78;;;;;;;;;;6270659;28;20040;-74
2024/03/31 10:11:35;;;;;;;14.05;1.63;;;;;;;;;;6276266;28;20109;-73
2024/03/31 10:14:37;;;;;;;5.40;1.30;;;;;;;;;;6274260;28;20670;-73
2024/03/31 10:17:40;;;;;;;10.95;2.40;;;;;;;;;;6276430;28;20056;-74
2024/03/31 10:20:45;;;;;;;9.57;2.53;;;;;;;;;;6275725;28;20044;-74
2024/03/31 10:23:47;;;;;;;8.68;1.95;;;;;;;;;;6271582;28;20059;-74
2024/03/31 10:26:49;;;;;;;5.18;1.35;;;;;;;;;;6278341;28;20055;-74
2024/03/31 10:29:50;;;;;;;8.13;2.85;;;;;;;;;;6257325;28;20522;-74
2024/03/31 10:32:52;;;;;;;6.32;3.65;;;;;;;;;;6270186;28;20054;-73
2024/03/31 10:35:53;;;;;;;9.82;1.55;;;;;;;;;;6272452;28;20067;-74
2024/03/31 10:38:54;;;;;;;6.32;1.73;;;;;;;;;;6259046;28;20060;-74
2024/03/31 10:41:56;;;;;;;10.90;2.78;;;;;;;;;;6291573;28;20043;-74
2024/03/31 10:44:58;;;;;;;12.00;4.30;;;;;;;;;;6269431;28;20516;-74
2024/03/31 10:47:59;;;;;;;7.07;3.10;;;;;;;;;;6260384;28;20863;-73
2024/03/31 10:51:27;;;;;;;6.93;3.92;;;;;;;;;;6290869;28;20043;-74
2024/03/31 10:54:35;;;;;;;7.63;3.25;;;;;;;;;;6293177;28;20059;-74
2024/03/31 10:57:38;;;;;;;8.73;2.25;;;;;;;;;;6309796;28;20047;-74
2024/03/31 11:00:44;;;;;;;9.38;4.88;;;;;;;;;;6290524;28;20047;-73
2024/03/31 11:03:48;;;;;;;6.78;1.85;;;;;;;;;;6270252;28;20079;-74
2024/03/31 11:06:51;;;;;;;5.95;1.48;;;;;;;;;;6291745;28;20051;-74
2024/03/31 11:09:53;;;;;;;6.90;2.65;;;;;;;;;;6294320;28;20059;-74
2024/03/31 11:12:54;;;;;;;8.45;2.95;;;;;;;;;;6275150;28;20074;-74
2024/03/31 11:15:55;;;;;;;6.13;1.75;;;;;;;;;;6290071;28;20502;-75
2024/03/31 11:18:57;;;;;;;9.48;4.70;;;;;;;;;;6255069;28;20778;-77
2024/03/31 11:22:01;;;;;;;10.20;2.58;;;;;;;;;;6290574;28;20781;-75
2024/03/31 11:25:06;;;;;;;14.60;5.80;;;;;;;;;;6271467;28;20757;-76
2024/03/31 11:28:09;;;;;;;7.57;3.88;;;;;;;;;;6285251;28;20617;-75
2024/03/31 11:31:10;;;;;;;8.30;1.85;;;;;;;;;;6289642;28;20047;-75
2024/03/31 11:34:12;;;;;;;10.20;1.80;;;;;;;;;;6275670;28;20411;-75
2024/03/31 11:37:13;;;;;;;13.30;4.35;;;;;;;;;;6287367;28;20394;-75
2024/03/31 11:40:14;;;;;;;5.45;3.25;;;;;;;;;;6272657;28;20181;-75
2024/03/31 11:43:15;;;;;;;5.05;1.40;;;;;;;;;;6290614;28;20567;-75
2024/03/31 11:46:18;;;;;;;8.60;5.13;;;;;;;;;;6286194;28;20032;-76
2024/03/31 11:49:20;;;;;;;12.38;1.25;;;;;;;;;;6277961;28;20113;-75
2024/03/31 11:52:21;;;;;;;7.38;3.03;;;;;;;;;;6262499;28;20035;-75
2024/03/31 11:55:23;;;;;;;13.10;3.20;;;;;;;;;;6289636;28;20040;-76
2024/03/31 11:58:24;;;;;;;12.73;5.00;;;;;;;;;;6271210;28;20063;-75
2024/03/31 12:01:25;;;;;;;6.43;2.83;;;;;;;;;;6270864;28;20078;-75
2024/03/31 12:04:26;;;;;;;7.93;1.50;;;;;;;;;;6303973;28;20044;-74
2024/03/31 12:07:27;;;;;;;52.15;29.73;;;;;;;;;;6286989;28;20091;-72
2024/03/31 12:10:29;;;;;;;10.88;2.97;;;;;;;;;;6268707;28;20093;-72
2024/03/31 12:13:31;;;;;;;11.32;2.17;;;;;;;;;;6252063;28;20105;-73
2024/03/31 12:16:32;;;;;;;13.18;4.75;;;;;;;;;;6287994;28;20061;-73
2024/03/31 12:19:34;;;;;;;15.00;3.72;;;;;;;;;;6255513;28;20040;-73
2024/03/31 12:22:37;;;;;;;16.85;5.22;;;;;;;;;;6288387;28;20040;-73
2024/03/31 12:25:39;;;;;;;16.63;6.90;;;;;;;;;;6307173;28;20073;-73
2024/03/31 12:28:40;;;;;;;28.38;5.10;;;;;;;;;;6271961;28;20040;-73
2024/03/31 12:31:41;;;;;;;13.38;4.20;;;;;;;;;;6265164;28;20043;-73
2024/03/31 12:34:43;;;;;;;11.73;2.60;;;;;;;;;;6271818;28;20047;-73
2024/03/31 12:37:44;;;;;;;13.00;2.63;;;;;;;;;;6253472;28;20040;-73
2024/03/31 12:40:45;;;;;;;13.95;4.53;;;;;;;;;;6271775;28;20036;-72
2024/03/31 12:43:46;;;;;;;10.77;3.78;;;;;;;;;;6266349;28;20047;-73
2024/03/31 12:46:47;;;;;;;16.50;3.22;;;;;;;;;;6274709;28;20036;-73
2024/03/31 12:49:49;;;;;;;16.20;6.30;;;;;;;;;;6270450;28;20043;-74
2024/03/31 12:52:50;;;;;;;16.85;3.03;;;;;;;;;;6252172;28;20575;-74
2024/03/31 12:55:52;;;;;;;26.90;3.53;;;;;;;;;;6273269;28;20051;-73
2024/03/31 12:58:53;;;;;;;18.58;4.97;;;;;;;;;;6302654;28;20040;-73
2024/03/31 13:02:01;;;;;;;20.00;4.78;;;;;;;;;;6268416;28;20082;-73
2024/03/31 13:05:03;;;;;;;21.92;4.00;;;;;;;;;;6309737;28;20052;-73
2024/03/31 13:08:08;;;;;;;21.55;4.32;;;;;;;;;;6287566;28;20047;-74
2024/03/31 13:11:10;;;;;;;27.92;4.70;;;;;;;;;;6270758;28;20047;-74
2024/03/31 13:14:12;;;;;;;29.58;5.20;;;;;;;;;;6304733;28;21395;-74
2024/03/31 13:17:14;;;;;;;31.45;4.80;;;;;;;;;;6290045;28;20064;-74
2024/03/31 13:20:15;;;;;;;31.92;6.28;;;;;;;;;;6277801;28;20028;-75
2024/03/31 13:23:16;;;;;;;30.15;6.25;;;;;;;;;;6275212;28;20044;-74
2024/03/31 13:26:18;;;;;;;33.05;5.82;;;;;;;;;;6274221;28;20047;-74
2024/03/31 13:29:20;;;;;;;31.60;5.53;;;;;;;;;;6242680;28;20870;-74
2024/03/31 13:32:21;;;;;;;30.08;5.03;;;;;;;;;;6291651;28;20129;-73
2024/03/31 13:35:22;;;;;;;28.00;5.13;;;;;;;;;;6274945;28;20400;-74
2024/03/31 13:38:23;;;;;;;30.55;7.38;;;;;;;;;;6259160;28;20054;-75
2024/03/31 13:41:24;;;;;;;39.63;10.15;;;;;;;;;;6273674;28;20044;-75
2024/03/31 13:44:26;;;;;;;37.50;6.97;;;;;;;;;;6274568;28;20044;-75
2024/03/31 13:47:27;;;;;;;38.88;8.00;;;;;;;;;;6290679;28;20706;-75
2024/03/31 13:50:29;;;;;;;44.85;7.07;;;;;;;;;;6278761;28;20105;-75
2024/03/31 13:53:30;;;;;;;29.85;6.47;;;;;;;;;;6282848;28;20040;-75
2024/03/31 13:56:31;;;;;;;32.60;5.85;;;;;;;;;;6270533;28;20040;-74
2024/03/31 13:59:33;;;;;;;26.27;5.07;;;;;;;;;;6258123;28;20070;-74
2024/03/31 14:02:33;;;;;;;26.63;5.25;;;;;;;;;;6290043;28;20052;-75
2024/03/31 14:05:34;;;;;;;29.67;5.97;;;;;;;;;;6279496;28;20047;-74
2024/03/31 14:08:35;;;;;;;40.15;6.72;;;;;;;;;;6289497;28;20113;-74
2024/03/31 14:11:37;;;;;;;30.67;5.72;;;;;;;;;;6293557;28;20048;-74
2024/03/31 14:14:38;;;;;;;40.33;6.75;;;;;;;;;;6242725;28;20816;-74
2024/03/31 14:17:39;;;;;;;41.97;13.05;;;;;;;;;;6291384;28;20052;-74
2024/03/31 14:20:40;;;;;;;32.25;6.93;;;;;;;;;;6293763;28;20048;-75
2024/03/31 14:23:41;;;;;;;56.40;30.55;;;;;;;;;;6272457;28;20052;-75
2024/03/31 14:26:43;;;;;;;54.35;21.98;;;;;;;;;;6260671;28;20040;-75
2024/03/31 14:29:44;;;;;;;36.10;7.50;;;;;;;;;;6258177;28;20777;-74
2024/03/31 14:32:45;;;;;;;38.10;7.60;;;;;;;;;;6281123;28;20142;-75
2024/03/31 14:35:46;;;;;;;39.42;7.25;;;;;;;;;;6261554;28;20071;-75
2024/03/31 14:38:47;;;;;;;35.47;8.48;;;;;;;;;;6290625;28;20097;-74
2024/03/31 14:41:48;;;;;;;43.83;8.20;;;;;;;;;;6275943;28;20044;-74
2024/03/31 14:44:49;;;;;;;43.88;9.52;;;;;;;;;;6287921;28;20044;-74
2024/03/31 14:47:50;;;;;;;38.08;7.20;;;;;;;;;;6274659;28;20531;-74
2024/03/31 14:50:52;;;;;;;44.67;7.97;;;;;;;;;;6289276;28;20058;-74
2024/03/31 14:53:54;;;;;;;48.50;7.88;;;;;;;;;;6290832;28;20035;-75
2024/03/31 14:57:00;;;;;;;31.45;5.80;;;;;;;;;;6292343;28;20051;-75
2024/03/31 15:00:05;;;;;;;26.17;5.45;;;;;;;;;;6281151;28;20043;-75
2024/03/31 15:03:06;;;;;;;52.83;8.73;;;;;;;;;;6290044;28;20057;-75
2024/03/31 15:06:07;;;;;;;43.08;7.75;;;;;;;;;;6271842;28;20040;-74
2024/03/31 15:09:09;;;;;;;44.38;8.45;;;;;;;;;;6275539;28;20051;-74
2024/03/31 15:12:10;;;;;;;40.55;7.43;;;;;;;;;;6277292;28;20068;-74
2024/03/31 15:15:11;;;;;;;37.22;8.80;;;;;;;;;;6237953;28;20184;-74
2024/03/31 15:18:12;;;;;;;37.83;6.25;;;;;;;;;;6252330;28;20040;-72
2024/03/31 15:21:13;;;;;;;37.40;8.60;;;;;;;;;;6291103;28;20074;-74
2024/03/31 15:24:14;;;;;;;39.03;5.60;;;;;;;;;;6274779;28;20886;-73
2024/03/31 15:27:16;;;;;;;43.63;7.07;;;;;;;;;;6281459;28;20054;-73
2024/03/31 15:30:17;;;;;;;43.20;7.75;;;;;;;;;;6274114;28;20047;-73
2024/03/31 15:33:18;;;;;;;42.65;7.95;;;;;;;;;;6289740;28;20596;-74
2024/03/31 15:36:20;;;;;;;36.50;7.03;;;;;;;;;;6276508;28;20078;-73
2024/03/31 15:39:22;;;;;;;42.70;7.07;;;;;;;;;;6271277;28;20056;-73
2024/03/31 15:42:23;;;;;;;32.15;7.00;;;;;;;;;;6289241;28;20546;-74
2024/03/31 15:45:27;;;;;;;44.63;8.13;;;;;;;;;;6257398;28;20058;-72
2024/03/31 15:48:28;;;;;;;52.85;10.05;;;;;;;;;;6288483;28;20039;-73
2024/03/31 15:51:29;;;;;;;55.95;7.80;;;;;;;;;;6288409;28;20048;-72
2024/03/31 15:54:31;;;;;;;43.22;8.60;;;;;;;;;;6267308;28;20047;-72
2024/03/31 15:57:35;;;;;;;44.05;7.57;;;;;;;;;;6288464;28;20039;-73
2024/03/31 16:00:39;;;;;;;48.67;9.18;;;;;;;;;;6304826;28;20040;-74
2024/03/31 16:03:41;;;;;;;46.35;7.25;;;;;;;;;;6287044;28;20048;-74
2024/03/31 16:06:42;;;;;;;67.75;22.20;;;;;;;;;;6270926;28;20051;-73
2024/03/31 16:09:43;;;;;;;46.00;12.25;;;;;;;;;;6289161;28;20032;-72
2024/03/31 16:12:44;;;;;;;45.60;10.07;;;;;;;;;;6288189;28;20048;-72
2024/03/31 16:15:46;;;;;;;55.05;10.55;;;;;;;;;;6289557;28;20043;-73
2024/03/31 16:18:47;;;;;;;43.00;10.27;;;;;;;;;;6286897;28;20131;-74
2024/03/31 16:21:48;;;;;;;46.03;7.30;;;;;;;;;;6271527;28;20058;-73
2024/03/31 16:24:49;;;;;;;50.72;9.60;;;;;;;;;;6289245;28;20048;-73
2024/03/31 16:27:50;;;;;;;65.82;7.82;;;;;;;;;;6277497;28;20051;-73
2024/03/31 16:30:52;;;;;;;48.72;8.00;;;;;;;;;;6289203;28;20044;-73
2024/03/31 16:33:53;;;;;;;43.92;6.53;;;;;;;;;;6269591;28;20052;-73
2024/03/31 16:36:54;;;;;;;51.85;8.68;;;;;;;;;;6292850;28;20044;-73
2024/03/31 16:39:57;;;;;;;50.72;5.75;;;;;;;;;;6262928;28;20078;-73
2024/03/31 16:42:58;;;;;;;51.35;8.70;;;;;;;;;;6278839;28;20036;-73
2024/03/31 16:45:59;;;;;;;44.67;9.77;;;;;;;;;;6270760;28;20048;-74
2024/03/31 16:49:00;;;;;;;57.60;10.07;;;;;;;;;;6289175;28;20098;-73
2024/03/31 16:52:01;;;;;;;62.65;10.15;;;;;;;;;;6277242;28;20051;-73
2024/03/31 16:55:02;;;;;;;48.13;13.82;;;;;;;;;;6293753;28;20044;-73
2024/03/31 16:58:04;;;;;;;61.67;15.23;;;;;;;;;;6290510;28;20507;-73
2024/03/31 17:01:05;;;;;;;53.97;13.60;;;;;;;;;;6273810;28;20067;-73
2024/03/31 17:04:06;;;;;;;56.00;10.77;;;;;;;;;;6277397;28;20055;-75
2024/03/31 17:07:07;;;;;;;48.72;12.20;;;;;;;;;;6292871;28;20028;-73
2024/03/31 17:10:08;;;;;;;162.43;64.22;;;;;;;;;;6275384;28;20032;-73
2024/03/31 17:13:09;;;;;;;57.70;17.98;;;;;;;;;;6287932;28;20675;-73
2024/03/31 17:16:11;;;;;;;69.63;19.85;;;;;;;;;;6258477;28;20040;-72
2024/03/31 17:19:13;;;;;;;68.45;22.80;;;;;;;;;;6274933;28;20105;-72
2024/03/31 17:22:14;;;;;;;44.67;13.82;;;;;;;;;;6273336;28;20062;-70
2024/03/31 17:25:15;;;;;;;75.30;26.38;;;;;;;;;;6272707;28;20151;-72
2024/03/31 17:28:17;;;;;;;81.68;33.92;;;;;;;;;;6276061;28;20048;-73
2024/03/31 17:31:18;;;;;;;36.83;15.85;;;;;;;;;;6289996;28;20048;-74
2024/03/31 17:34:19;;;;;;;35.53;14.52;;;;;;;;;;6290854;28;20040;-73
2024/03/31 17:37:21;;;;;;;30.75;14.02;;;;;;;;;;6294532;28;20559;-74
2024/03/31 17:40:22;;;;;;;23.85;3.55;;;;;;;;;;6257112;28;20048;-74
2024/03/31 17:43:23;;;;;;;32.95;6.50;;;;;;;;;;6269656;28;20048;-74
2024/03/31 17:46:26;;;;;;;27.75;9.80;;;;;;;;;;6291140;28;20051;-73
2024/03/31 17:49:27;;;;;;;24.30;7.65;;;;;;;;;;6274037;28;20608;-74
2024/03/31 17:52:29;;;;;;;21.85;7.60;;;;;;;;;;6245541;28;20056;-74
2024/03/31 17:55:32;;;;;;;22.25;4.25;;;;;;;;;;6278031;28;20533;-73
2024/03/31 17:58:38;;;;;;;21.85;3.88;;;;;;;;;;6279814;28;20044;-74
2024/03/31 18:01:39;;;;;;;18.70;4.45;;;;;;;;;;6289182;28;20489;-73